Time;durP1;ratioP1;P1;durP2;ratioP2;P2;SDS_P1;SDS_P2;PMS_P1;PMS_P2;Temp;Humidity;BMP_temperature;BMP_pressure;BME280_temperature;BME280_humidity;BME280_pressure;Samples;Min_cycle;Max_cycle;Signal;HPM_P1;HPM_P2
2022/05/15 00:00:38;;;;;;;4.60;1.90;;;;;;;15.69;40.97;100609.17;117476;1185;24176;-54
2022/05/15 00:03:11;;;;;;;4.00;1.80;;;;;;;15.67;41.06;100614.02;117475;1185;21846;-54
2022/05/15 00:05:39;;;;;;;4.60;1.80;;;;;;;15.64;41.12;100610.57;117394;1185;24240;-55
2022/05/15 00:08:09;;;;;;;4.70;1.90;;;;;;;15.59;41.14;100612.30;117408;1181;22890;-54
2022/05/15 00:10:38;;;;;;;3.50;1.70;;;;;;;15.54;41.11;100608.21;117514;1185;22898;-50
2022/05/15 00:13:09;;;;;;;4.20;1.80;;;;;;;15.48;41.14;100608.55;117361;1185;21855;-54
2022/05/15 00:15:39;;;;;;;3.40;2.00;;;;;;;15.42;41.29;100606.98;117415;1184;21871;-54
2022/05/15 00:18:07;;;;;;;3.40;1.70;;;;;;;15.42;41.35;100606.78;117488;1185;23550;-50
2022/05/15 00:20:37;;;;;;;5.00;2.00;;;;;;;15.42;41.36;100608.35;117563;1185;21870;-50
2022/05/15 00:23:06;;;;;;;3.70;1.80;;;;;;;15.43;41.40;100609.94;117406;1184;22084;-54
2022/05/15 00:25:35;;;;;;;6.80;1.80;;;;;;;15.43;41.47;100611.00;117358;1186;22972;-50
2022/05/15 00:28:05;;;;;;;3.40;1.80;;;;;;;15.40;41.37;100610.02;117432;1185;22908;-55
2022/05/15 00:30:35;;;;;;;3.50;1.90;;;;;;;15.39;41.42;100609.16;117534;1184;23538;-55
2022/05/15 00:33:03;;;;;;;3.10;1.90;;;;;;;15.35;41.46;100605.75;117329;1184;21850;-55
2022/05/15 00:35:33;;;;;;;3.10;1.80;;;;;;;15.35;41.48;100604.50;117338;1185;21880;-50
2022/05/15 00:38:05;;;;;;;3.80;1.90;;;;;;;15.29;41.37;100603.95;117435;1186;23462;-55
2022/05/15 00:40:35;;;;;;;4.60;1.90;;;;;;;15.25;41.44;100608.48;117527;1184;22912;-55
2022/05/15 00:43:05;;;;;;;4.30;1.60;;;;;;;15.26;41.49;100611.80;117535;1185;21852;-55
2022/05/15 00:45:34;;;;;;;4.00;2.00;;;;;;;15.18;41.59;100611.52;117431;1185;22639;-50
2022/05/15 00:48:03;;;;;;;3.80;2.00;;;;;;;15.10;41.54;100614.39;117512;1184;23537;-54
2022/05/15 00:50:33;;;;;;;4.10;2.10;;;;;;;15.02;41.67;100609.45;117511;1180;23472;-50
2022/05/15 00:53:05;;;;;;;3.00;2.00;;;;;;;15.00;41.77;100608.45;117376;1185;23557;-55
2022/05/15 00:55:37;;;;;;;5.50;2.00;;;;;;;15.01;41.70;100611.79;117388;1185;24160;-50
2022/05/15 00:58:12;;;;;;;3.00;1.70;;;;;;;15.01;41.87;100610.54;117422;1185;23656;-50
2022/05/15 01:00:41;;;;;;;3.70;1.40;;;;;;;14.98;41.85;100612.05;117557;1184;23610;-55
2022/05/15 01:03:14;;;;;;;3.30;1.90;;;;;;;14.95;41.93;100611.09;117447;1186;22911;-55
2022/05/15 01:05:47;;;;;;;7.70;2.10;;;;;;;14.90;41.88;100613.67;117700;1185;22947;-55
2022/05/15 01:08:21;;;;;;;3.80;2.00;;;;;;;14.87;42.09;100608.45;117518;1184;24121;-51
2022/05/15 01:10:52;;;;;;;6.30;1.70;;;;;;;14.84;42.02;100605.71;117422;1185;21855;-55
2022/05/15 01:13:28;;;;;;;2.80;1.50;;;;;;;14.82;42.02;100602.40;117464;1185;23550;-50
2022/05/15 01:15:56;;;;;;;3.30;1.90;;;;;;;14.82;42.17;100601.71;117543;1174;23021;-55
2022/05/15 01:18:27;;;;;;;2.80;1.50;;;;;;;14.80;42.10;100604.04;117417;1186;23455;-55
2022/05/15 01:21:18;;;;;;;3.60;2.00;;;;;;;14.79;42.14;100609.02;117515;1186;21847;-50
2022/05/15 01:23:46;;;;;;;;;;;;;;;14.77;42.11;100608.55;117271;1186;24143;-51
2022/05/15 01:26:14;;;;;;;2.50;1.40;;;;;;;14.76;42.16;100612.29;117398;1185;23708;-55
2022/05/15 01:28:45;;;;;;;3.80;1.70;;;;;;;14.73;42.10;100616.95;117429;1185;23531;-50
2022/05/15 01:31:14;;;;;;;4.70;1.90;;;;;;;14.71;42.24;100616.10;117540;1185;23474;-55
2022/05/15 01:33:46;;;;;;;2.90;1.60;;;;;;;14.68;42.25;100616.34;117369;1184;21851;-51
2022/05/15 01:36:14;;;;;;;6.20;1.50;;;;;;;14.64;42.27;100611.48;117499;1186;23273;-56
2022/05/15 01:38:42;;;;;;;4.50;1.80;;;;;;;14.60;42.33;100612.13;117537;1186;24156;-51
2022/05/15 01:41:12;;;;;;;3.60;1.90;;;;;;;14.55;42.21;100606.97;117562;1184;22911;-55
2022/05/15 01:43:43;;;;;;;3.10;1.90;;;;;;;14.54;42.22;100608.93;117420;1185;23583;-55
2022/05/15 01:46:12;;;;;;;2.60;1.50;;;;;;;14.50;42.35;100609.37;117530;1185;21846;-50
2022/05/15 01:48:40;;;;;;;3.90;1.70;;;;;;;14.43;42.37;100605.29;117559;1184;23823;-55
2022/05/15 01:51:08;;;;;;;2.20;1.80;;;;;;;14.38;42.34;100612.49;117410;1185;23556;-55
2022/05/15 01:53:37;;;;;;;2.90;1.50;;;;;;;14.31;42.30;100604.89;117461;1185;23537;-54
2022/05/15 01:56:06;;;;;;;4.30;2.00;;;;;;;14.25;42.21;100606.61;117533;1184;21834;-50
2022/05/15 01:58:34;;;;;;;3.20;1.70;;;;;;;14.19;42.42;100607.30;117498;1185;23618;-55
2022/05/15 02:01:03;;;;;;;4.50;1.70;;;;;;;14.09;42.44;100604.17;117570;1184;24743;-55
2022/05/15 02:03:31;;;;;;;3.70;1.80;;;;;;;14.05;42.34;100605.34;117465;1182;21846;-51
2022/05/15 02:06:01;;;;;;;2.60;1.80;;;;;;;14.04;42.39;100605.34;117517;1184;24141;-50
2022/05/15 02:08:32;;;;;;;9.20;2.00;;;;;;;14.04;42.38;100604.28;117551;1184;23510;-50
2022/05/15 02:11:00;;;;;;;3.60;1.90;;;;;;;14.02;42.43;100603.98;117431;1184;21845;-54
2022/05/15 02:13:28;;;;;;;5.00;2.00;;;;;;;13.98;42.55;100608.29;117408;1186;23528;-55
2022/05/15 02:15:58;;;;;;;3.60;1.90;;;;;;;14.01;42.55;100611.23;117492;1185;24152;-56
2022/05/15 02:18:26;;;;;;;3.10;1.70;;;;;;;13.97;42.67;100610.06;117546;1185;23551;-55
2022/05/15 02:20:54;;;;;;;5.30;2.00;;;;;;;13.98;42.68;100609.19;117439;1185;23429;-55
2022/05/15 02:23:22;;;;;;;3.60;1.80;;;;;;;13.97;42.81;100613.79;117406;1184;23576;-50
2022/05/15 02:25:51;;;;;;;4.90;1.70;;;;;;;13.99;42.87;100614.11;117345;1185;21852;-50
2022/05/15 02:28:21;;;;;;;3.50;1.70;;;;;;;13.96;42.79;100614.84;117356;1185;23587;-50
2022/05/15 02:30:49;;;;;;;5.50;2.20;;;;;;;13.94;42.85;100612.95;117395;1186;21843;-50
2022/05/15 02:33:17;;;;;;;3.30;2.00;;;;;;;13.93;42.82;100611.39;117542;1186;23459;-52
2022/05/15 02:35:46;;;;;;;5.50;1.90;;;;;;;13.94;42.89;100614.56;117463;1185;23528;-55
2022/05/15 02:38:15;;;;;;;4.70;1.80;;;;;;;13.93;43.00;100617.23;117381;1184;23569;-55
2022/05/15 02:40:44;;;;;;;2.70;1.60;;;;;;;13.93;42.99;100616.00;117541;1186;21891;-50
2022/05/15 02:43:12;;;;;;;4.70;1.90;;;;;;;13.93;42.95;100620.57;117371;1185;23442;-51
2022/05/15 02:45:41;;;;;;;4.90;2.00;;;;;;;13.96;43.00;100621.58;117409;1186;23461;-50
2022/05/15 02:51:03;;;;;;;6.30;2.60;;;;;;;13.95;43.13;100622.99;117399;1185;24278;-50
2022/05/15 02:51:04;;;;;;;9.70;2.70;;;;;;;13.96;43.09;100625.27;117318;1186;24162;-55
2022/05/15 02:53:43;;;;;;;3.70;1.80;;;;;;;13.94;43.17;100624.96;117365;1186;23463;-55
2022/05/15 02:56:14;;;;;;;3.60;1.80;;;;;;;13.95;43.23;100626.52;117380;1185;22305;-50
2022/05/15 02:58:43;;;;;;;3.90;2.10;;;;;;;14.00;43.17;100626.44;117566;1184;21896;-56
2022/05/15 03:01:11;;;;;;;3.20;1.90;;;;;;;14.01;43.27;100628.34;117355;1185;24146;-50
2022/05/15 03:03:40;;;;;;;4.00;2.10;;;;;;;14.03;43.18;100629.89;117388;1185;23619;-55
2022/05/15 03:06:09;;;;;;;3.10;1.80;;;;;;;14.04;43.31;100630.93;117466;1185;23546;-56
2022/05/15 03:08:41;;;;;;;6.50;1.70;;;;;;;14.07;43.36;100638.63;117436;1185;22223;-50
2022/05/15 03:11:09;;;;;;;2.70;1.60;;;;;;;14.13;43.57;100638.65;117339;1186;22900;-55
2022/05/15 03:13:38;;;;;;;2.20;1.60;;;;;;;14.22;43.54;100639.52;117396;1182;21849;-55
2022/05/15 03:16:07;;;;;;;4.50;1.70;;;;;;;14.29;43.57;100639.17;117445;1185;23429;-50
2022/05/15 03:18:41;;;;;;;4.70;1.70;;;;;;;14.39;43.53;100643.33;117521;1185;23534;-55
2022/05/15 03:21:10;;;;;;;3.80;1.70;;;;;;;14.49;43.69;100649.65;117396;1181;21859;-51
2022/05/15 03:23:39;;;;;;;5.30;2.50;;;;;;;14.60;43.79;100651.52;117392;1185;21963;-50
2022/05/15 03:26:09;;;;;;;6.70;2.10;;;;;;;14.67;43.82;100654.14;117363;1186;23535;-56
2022/05/15 03:28:37;;;;;;;4.10;1.80;;;;;;;14.78;43.74;100651.43;117371;1185;22992;-56
2022/05/15 03:31:06;;;;;;;3.10;1.60;;;;;;;14.87;43.91;100652.61;117516;1184;23618;-51
2022/05/15 03:33:36;;;;;;;5.00;2.00;;;;;;;14.95;43.94;100650.47;117542;1185;21840;-53
2022/05/15 03:36:10;;;;;;;3.80;1.80;;;;;;;15.05;43.98;100649.15;117514;1186;23560;-56
2022/05/15 03:38:43;;;;;;;5.30;1.80;;;;;;;15.14;43.90;100650.33;117523;1186;21887;-56
2022/05/15 03:41:12;;;;;;;5.00;2.00;;;;;;;15.24;43.93;100649.89;117566;1185;21856;-52
2022/05/15 03:43:40;;;;;;;5.70;1.90;;;;;;;15.34;43.95;100643.43;117519;1186;22315;-52
2022/05/15 03:46:08;;;;;;;5.50;2.10;;;;;;;15.44;44.01;100649.16;117383;1185;24146;-56
2022/05/15 03:48:38;;;;;;;4.50;1.60;;;;;;;15.52;44.02;100649.44;117486;1186;24211;-51
2022/05/15 03:51:06;;;;;;;2.30;1.50;;;;;;;15.60;43.89;100645.00;117493;1185;22317;-56
2022/05/15 03:53:34;;;;;;;8.30;1.80;;;;;;;15.67;43.92;100642.33;117541;1186;24137;-55
2022/05/15 03:56:04;;;;;;;8.10;3.00;;;;;;;15.73;43.76;100645.29;117607;1184;23807;-56
2022/05/15 03:58:35;;;;;;;;;;;;;;;15.76;43.96;100645.77;117392;1186;23538;-52
2022/05/15 04:01:04;;;;;;;3.90;1.90;;;;;;;15.81;44.01;100646.88;117328;1186;23440;-51
2022/05/15 04:03:33;;;;;;;6.70;1.90;;;;;;;15.87;43.93;100652.38;117321;1186;22922;-52
2022/05/15 04:06:02;;;;;;;7.20;2.10;;;;;;;15.94;44.06;100654.10;117415;1185;23533;-56
2022/05/15 04:08:30;;;;;;;5.80;2.00;;;;;;;16.02;44.04;100652.61;117384;1185;23712;-52
2022/05/15 04:10:59;;;;;;;4.70;1.90;;;;;;;16.10;44.09;100653.30;117417;1185;23538;-52
2022/05/15 04:13:28;;;;;;;3.60;1.70;;;;;;;16.17;44.04;100655.01;117444;1184;23897;-52
2022/05/15 04:15:57;;;;;;;4.20;1.90;;;;;;;16.24;44.15;100652.16;117568;1185;22989;-52
2022/05/15 04:18:25;;;;;;;3.20;1.60;;;;;;;16.33;44.11;100652.20;117411;1185;21851;-52
2022/05/15 04:20:54;;;;;;;4.40;2.30;;;;;;;16.44;44.17;100652.20;117390;1185;23531;-56
2022/05/15 04:23:22;;;;;;;6.20;2.60;;;;;;;16.57;44.19;100657.27;117376;1188;24124;-55
2022/05/15 04:25:50;;;;;;;8.80;2.20;;;;;;;16.76;44.18;100661.43;117428;1184;24162;-55
2022/05/15 04:28:20;;;;;;;4.80;2.00;;;;;;;16.90;44.24;100660.26;117414;1185;23017;-56
2022/05/15 04:30:48;;;;;;;4.70;2.10;;;;;;;17.02;44.13;100663.59;117362;1185;21839;-52
2022/05/15 04:33:17;;;;;;;7.30;2.60;;;;;;;17.14;44.21;100663.05;117434;1185;23535;-56
2022/05/15 04:35:45;;;;;;;3.50;1.90;;;;;;;17.24;44.11;100667.27;117549;1185;24149;-55
2022/05/15 04:38:14;;;;;;;6.90;2.80;;;;;;;17.37;44.18;100669.65;117370;1185;23544;-55
2022/05/15 04:40:42;;;;;;;5.70;2.30;;;;;;;17.52;44.22;100665.92;117385;1185;22918;-52
2022/05/15 04:43:11;;;;;;;6.50;1.90;;;;;;;17.69;44.29;100666.73;117379;1185;23541;-52
2022/05/15 04:45:40;;;;;;;4.60;1.80;;;;;;;17.86;44.31;100664.30;117429;1185;23471;-52
2022/05/15 04:48:10;;;;;;;5.80;2.20;;;;;;;18.04;44.36;100663.30;117413;1185;22916;-53
2022/05/15 04:50:38;;;;;;;4.10;2.00;;;;;;;18.21;44.19;100664.41;117218;1185;21859;-52
2022/05/15 04:53:06;;;;;;;3.70;1.80;;;;;;;18.36;44.20;100660.09;117098;1184;21851;-53
2022/05/15 04:55:34;;;;;;;4.20;2.10;;;;;;;18.51;44.23;100665.18;117488;1185;23434;-52
2022/05/15 04:58:03;;;;;;;4.40;2.30;;;;;;;18.62;44.04;100670.77;117416;1184;23542;-55
2022/05/15 05:00:31;;;;;;;7.50;2.60;;;;;;;18.75;44.17;100673.42;117424;1184;21849;-52
2022/05/15 05:03:00;;;;;;;3.90;2.10;;;;;;;18.94;44.24;100673.01;117401;1184;23564;-53
2022/05/15 05:05:29;;;;;;;5.70;2.60;;;;;;;19.14;44.18;100671.63;117458;1185;23541;-56
2022/05/15 05:07:57;;;;;;;3.30;1.90;;;;;;;19.34;44.16;100674.85;117479;1185;23564;-53
2022/05/15 05:10:26;;;;;;;6.20;2.50;;;;;;;19.54;44.10;100673.96;117386;1184;21850;-54
2022/05/15 05:12:55;;;;;;;4.00;2.00;;;;;;;19.76;44.15;100679.91;117470;1184;24153;-55
2022/05/15 05:15:24;;;;;;;5.20;2.00;;;;;;;19.96;44.06;100675.27;117398;1185;23530;-56
2022/05/15 05:17:52;;;;;;;4.30;1.90;;;;;;;20.15;43.96;100671.40;117412;1184;23544;-57
2022/05/15 05:20:21;;;;;;;4.30;1.80;;;;;;;20.32;43.74;100667.90;117408;1185;23531;-57
2022/05/15 05:22:51;;;;;;;4.30;2.10;;;;;;;20.46;43.74;100669.52;117369;1185;22962;-55
2022/05/15 05:25:19;;;;;;;5.90;2.00;;;;;;;20.63;43.76;100667.79;117326;1186;24163;-53
2022/05/15 05:27:49;;;;;;;3.80;2.00;;;;;;;20.81;43.71;100669.79;117396;1185;22841;-56
2022/05/15 05:30:19;;;;;;;3.90;2.00;;;;;;;21.02;43.62;100668.34;117337;1186;22917;-53
2022/05/15 05:32:48;;;;;;;4.80;1.80;;;;;;;21.20;43.45;100670.52;117413;1185;21836;-54
2022/05/15 05:35:19;;;;;;;11.30;2.40;;;;;;;21.35;43.40;100672.55;117347;1186;23542;-54
2022/05/15 05:37:47;;;;;;;8.30;2.10;;;;;;;21.52;43.33;100676.83;117393;1184;21848;-56
2022/05/15 05:40:16;;;;;;;3.20;1.40;;;;;;;21.73;43.40;100674.86;117407;1185;22915;-55
2022/05/15 05:42:45;;;;;;;4.00;1.80;;;;;;;21.98;43.38;100674.74;117302;1185;22960;-57
2022/05/15 05:45:14;;;;;;;7.00;1.90;;;;;;;22.20;43.19;100673.52;117357;1185;21856;-53
2022/05/15 05:47:44;;;;;;;6.40;1.90;;;;;;;22.39;42.90;100668.88;117439;1181;23563;-54
2022/05/15 05:50:12;;;;;;;8.00;2.00;;;;;;;22.56;42.81;100670.80;117447;1185;22911;-55
2022/05/15 05:52:41;;;;;;;7.30;2.00;;;;;;;22.75;42.99;100671.66;117432;1186;21945;-55
2022/05/15 05:55:12;;;;;;;4.70;2.30;;;;;;;22.91;42.83;100671.45;117362;1185;21889;-56
2022/05/15 05:57:41;;;;;;;5.60;2.10;;;;;;;23.08;42.66;100665.11;117389;1185;22090;-53
2022/05/15 06:00:15;;;;;;;8.20;2.60;;;;;;;23.23;42.47;100660.84;117467;1186;21873;-54
2022/05/15 06:02:44;;;;;;;10.10;4.60;;;;;;;23.34;42.37;100661.77;117387;1186;21868;-57
2022/05/15 06:05:14;;;;;;;6.10;2.80;;;;;;;23.44;42.26;100661.70;117419;1185;23534;-55
2022/05/15 06:07:42;;;;;;;6.00;2.50;;;;;;;23.56;42.24;100660.77;117420;1185;22762;-55
2022/05/15 06:10:12;;;;;;;5.40;1.90;;;;;;;23.65;41.98;100660.73;117437;1186;23560;-56
2022/05/15 06:12:41;;;;;;;4.00;1.60;;;;;;;23.76;41.85;100662.95;117340;1185;21840;-55
2022/05/15 06:15:10;;;;;;;7.40;1.90;;;;;;;23.91;41.95;100661.96;117401;1185;24264;-53
2022/05/15 06:17:39;;;;;;;8.40;2.10;;;;;;;24.05;41.89;100657.56;117478;1185;24136;-54
2022/05/15 06:20:09;;;;;;;8.70;2.10;;;;;;;24.27;41.94;100656.27;117550;1186;23272;-56
2022/05/15 06:22:39;;;;;;;8.90;2.00;;;;;;;24.51;41.95;100653.48;117468;1185;21834;-53
2022/05/15 06:25:08;;;;;;;5.50;2.00;;;;;;;24.73;41.91;100648.62;117333;1185;22829;-55
2022/05/15 06:27:40;;;;;;;6.90;2.10;;;;;;;24.89;41.64;100646.69;117525;1184;21848;-55
2022/05/15 06:30:09;;;;;;;4.50;1.80;;;;;;;24.98;41.43;100639.60;117525;1184;23440;-54
2022/05/15 06:32:39;;;;;;;3.50;1.60;;;;;;;24.94;41.04;100639.48;117393;1185;22722;-56
2022/05/15 06:35:08;;;;;;;2.80;1.30;;;;;;;24.83;40.94;100640.06;117489;1185;23451;-56
2022/05/15 06:37:36;;;;;;;2.40;1.30;;;;;;;24.83;40.98;100642.38;117505;1186;23563;-56
2022/05/15 06:40:06;;;;;;;2.30;1.00;;;;;;;24.86;40.79;100637.69;117568;1186;22263;-57
2022/05/15 06:42:34;;;;;;;5.60;1.30;;;;;;;24.77;40.51;100639.18;117390;1185;22802;-54
2022/05/15 06:45:05;;;;;;;2.50;1.10;;;;;;;24.73;40.48;100638.96;117416;1184;21844;-56
2022/05/15 06:47:36;;;;;;;4.90;1.40;;;;;;;24.79;40.54;100639.42;117398;1185;21852;-56
2022/05/15 06:50:05;;;;;;;3.80;1.60;;;;;;;24.94;40.54;100636.98;117402;1185;23563;-56
2022/05/15 06:52:36;;;;;;;5.90;2.00;;;;;;;25.09;40.58;100639.54;117383;1185;21846;-55
2022/05/15 06:55:06;;;;;;;6.70;1.60;;;;;;;25.19;40.40;100639.55;117335;1185;24156;-55
2022/05/15 06:57:34;;;;;;;4.60;1.50;;;;;;;25.28;40.32;100635.58;117403;1185;21848;-55
2022/05/15 07:00:14;;;;;;;7.10;2.10;;;;;;;25.39;40.17;100637.86;117556;1186;22226;-56
2022/05/15 07:02:44;;;;;;;6.10;1.60;;;;;;;25.53;40.08;100636.73;117491;1185;21859;-53
2022/05/15 07:05:23;;;;;;;5.50;1.80;;;;;;;25.58;39.96;100637.25;117450;1185;24125;-54
2022/05/15 07:07:52;;;;;;;3.70;2.20;;;;;;;25.53;39.77;100640.44;117430;1185;23632;-56
2022/05/15 07:10:25;;;;;;;4.90;2.20;;;;;;;25.46;39.53;100639.00;119437;1182;22156;-54
2022/05/15 07:12:53;;;;;;;5.60;1.40;;;;;;;25.50;39.67;100640.70;119460;1185;22262;-55
2022/05/15 07:15:21;;;;;;;6.10;1.90;;;;;;;25.55;39.51;100645.91;119457;1183;22245;-56
2022/05/15 07:17:49;;;;;;;3.50;1.40;;;;;;;25.55;39.46;100644.46;118219;1185;23250;-55
2022/05/15 07:20:17;;;;;;;3.30;1.50;;;;;;;25.69;39.51;100641.46;117370;1185;23544;-56
2022/05/15 07:22:49;;;;;;;7.00;2.10;;;;;;;25.82;39.52;100638.19;117342;1185;23636;-56
2022/05/15 07:25:17;;;;;;;3.40;1.30;;;;;;;26.01;39.46;100637.02;117367;1181;23621;-56
2022/05/15 07:27:46;;;;;;;5.60;2.00;;;;;;;26.15;39.24;100641.39;117321;1185;23543;-55
2022/05/15 07:30:14;;;;;;;9.10;1.90;;;;;;;26.24;38.91;100640.05;117392;1185;22642;-56
2022/05/15 07:32:44;;;;;;;;;;;;;;;26.33;39.09;100640.08;117230;1186;23550;-56
2022/05/15 07:35:13;;;;;;;4.40;1.80;;;;;;;26.47;39.01;100636.35;117316;1186;23547;-56
2022/05/15 07:37:42;;;;;;;3.80;1.40;;;;;;;26.64;39.01;100638.70;117271;1188;21856;-54
2022/05/15 07:40:11;;;;;;;3.80;1.70;;;;;;;26.75;38.58;100641.27;117359;1185;23563;-56
2022/05/15 07:42:41;;;;;;;4.70;1.30;;;;;;;26.63;38.47;100637.48;117416;1185;23005;-56
2022/05/15 07:45:11;;;;;;;3.40;1.50;;;;;;;26.53;38.52;100629.91;117452;1184;22636;-56
2022/05/15 07:47:39;;;;;;;3.00;1.50;;;;;;;26.60;38.55;100631.95;117390;1185;23548;-54
2022/05/15 07:50:11;;;;;;;3.80;2.30;;;;;;;26.66;38.45;100638.54;117423;1185;21839;-54
2022/05/15 07:52:39;;;;;;;4.20;1.60;;;;;;;26.69;38.40;100634.90;117373;1185;22649;-54
2022/05/15 07:55:12;;;;;;;5.70;1.70;;;;;;;26.75;38.29;100628.84;117347;1185;22920;-54
2022/05/15 07:57:41;;;;;;;4.50;1.70;;;;;;;26.84;38.05;100627.31;117436;1185;23560;-56
2022/05/15 08:00:16;;;;;;;5.40;1.80;;;;;;;26.83;38.03;100629.16;117503;1185;23554;-55
2022/05/15 08:02:46;;;;;;;3.80;1.80;;;;;;;26.76;37.83;100624.08;117406;1186;21842;-55
2022/05/15 08:08:09;;;;;;;4.40;1.60;;;;;;;26.58;37.96;100617.71;117335;1185;24185;-55
2022/05/15 08:10:40;;;;;;;4.50;1.80;;;;;;;26.61;37.87;100613.89;117593;1183;22233;-54
2022/05/15 08:13:10;;;;;;;5.20;1.60;;;;;;;26.69;37.70;100616.02;117551;1186;23503;-54
2022/05/15 08:15:38;;;;;;;4.10;1.70;;;;;;;26.84;37.78;100609.46;117180;1185;23627;-55
2022/05/15 08:23:46;;;;;;;5.70;1.80;;;;;;;26.91;37.51;100608.03;117332;1186;23547;-55
2022/05/15 08:26:15;;;;;;;4.80;1.60;;;;;;;27.05;37.82;100605.18;117367;1185;24149;-55
2022/05/15 08:28:43;;;;;;;4.70;1.60;;;;;;;27.27;37.78;100600.77;117399;1180;21862;-55
2022/05/15 08:31:12;;;;;;;5.20;1.60;;;;;;;27.44;37.69;100600.85;117449;1184;23434;-55
2022/05/15 08:33:41;;;;;;;7.00;2.20;;;;;;;27.56;37.55;100597.17;117412;1184;22617;-55
2022/05/15 08:36:10;;;;;;;4.00;1.50;;;;;;;27.64;37.35;100595.13;117477;1185;23554;-56
2022/05/15 08:38:40;;;;;;;3.00;1.30;;;;;;;27.61;37.10;100598.99;117408;1185;23580;-55
2022/05/15 08:41:59;;;;;;;3.90;1.90;;;;;;;27.47;36.95;100598.09;117398;1185;21880;-56
2022/05/15 08:44:30;;;;;;;5.10;1.60;;;;;;;27.19;36.56;100600.29;117244;1186;21988;-56
2022/05/15 08:47:04;;;;;;;2.90;1.60;;;;;;;26.82;36.49;100607.48;117091;1188;21861;-55
2022/05/15 08:49:38;;;;;;;4.60;1.40;;;;;;;26.50;36.59;100603.96;117381;1181;21851;-55
2022/05/15 08:52:09;;;;;;;3.20;1.60;;;;;;;26.25;36.41;100594.61;117356;1186;21854;-55
2022/05/15 08:54:42;;;;;;;4.50;1.70;;;;;;;26.09;36.47;100594.35;117299;1186;22980;-55
2022/05/15 08:57:16;;;;;;;3.70;1.60;;;;;;;25.89;36.26;100602.29;117097;1187;22902;-55
2022/05/15 08:59:54;;;;;;;7.70;1.80;;;;;;;25.65;36.22;100604.73;117455;1185;23296;-55
2022/05/15 09:02:23;;;;;;;3.70;1.30;;;;;;;25.57;36.38;100598.73;117315;1185;22899;-55
2022/05/15 09:04:52;;;;;;;3.00;1.30;;;;;;;25.56;36.34;100602.90;117465;1185;21839;-55
2022/05/15 09:07:43;;;;;;;2.40;1.60;;;;;;;25.53;36.38;100598.04;117370;1185;21839;-56
2022/05/15 09:10:35;;;;;;;3.60;1.70;;;;;;;25.53;36.36;100602.52;117362;1188;24149;-56
2022/05/15 09:13:11;;;;;;;7.50;2.10;;;;;;;25.53;36.39;100600.41;117430;1185;23553;-55
2022/05/15 09:15:59;;;;;;;3.70;1.60;;;;;;;25.52;36.36;100603.02;117434;1185;22313;-55
2022/05/15 09:18:28;;;;;;;5.90;1.70;;;;;;;25.54;36.16;100605.91;117535;1184;23618;-55
2022/05/15 09:21:02;;;;;;;5.60;1.80;;;;;;;25.57;36.19;100602.67;117555;1184;21854;-55
2022/05/15 09:23:39;;;;;;;5.50;1.60;;;;;;;25.59;36.24;100601.64;117424;1185;21846;-55
2022/05/15 09:26:39;;;;;;;4.50;1.70;;;;;;;25.68;36.36;100598.45;117517;1180;21924;-55
2022/05/15 09:29:14;;;;;;;3.90;1.40;;;;;;;25.80;36.48;100597.41;117161;1185;21869;-56
2022/05/15 09:31:42;;;;;;;3.80;1.60;;;;;;;26.02;36.41;100595.78;117511;1182;22316;-55
2022/05/15 09:34:23;;;;;;;2.90;1.40;;;;;;;26.13;36.22;100593.90;117957;1185;23528;-55
2022/05/15 09:36:52;;;;;;;;;;;;;;;26.15;36.17;100591.67;117497;1186;24140;-55
2022/05/15 09:39:36;;;;;;;3.50;1.60;;;;;;;26.19;36.14;100593.30;117379;1185;23477;-55
2022/05/15 09:45:10;;;;;;;3.00;1.80;;;;;;;26.27;35.96;100593.39;117417;1185;23857;-55
2022/05/15 09:47:40;;;;;;;4.20;1.80;;;;;;;26.28;36.11;100591.95;117439;1185;23542;-55
2022/05/15 09:50:10;;;;;;;4.50;1.70;;;;;;;26.50;36.29;100588.13;117516;1186;21862;-55
2022/05/15 09:52:40;;;;;;;6.90;1.60;;;;;;;26.85;36.30;100590.29;117290;1182;22989;-54
2022/05/15 09:55:13;;;;;;;3.90;1.70;;;;;;;27.19;36.29;100589.71;117400;1184;21849;-55
2022/05/15 09:57:55;;;;;;;5.30;1.80;;;;;;;27.28;36.08;100589.27;117319;1186;23624;-55
2022/05/15 10:00:24;;;;;;;5.60;1.60;;;;;;;27.19;35.81;100588.89;117324;1186;23544;-56
2022/05/15 10:02:53;;;;;;;5.70;1.70;;;;;;;27.12;35.65;100590.05;117359;1185;21852;-56
2022/05/15 10:05:24;;;;;;;4.80;1.60;;;;;;;27.05;35.68;100585.17;117427;1185;23675;-55
2022/05/15 10:07:58;;;;;;;5.20;2.20;;;;;;;27.17;35.94;100583.53;117146;1184;22918;-56
2022/05/15 10:10:33;;;;;;;6.00;1.70;;;;;;;27.43;36.06;100575.86;117379;1185;21850;-55
2022/05/15 10:13:07;;;;;;;4.90;2.00;;;;;;;27.83;36.27;100574.52;117289;1186;21957;-56
2022/05/15 10:15:39;;;;;;;5.80;1.90;;;;;;;28.20;36.08;100569.86;117382;1185;23456;-56
2022/05/15 10:18:09;;;;;;;6.20;2.00;;;;;;;28.42;35.74;100573.44;117425;1184;21924;-56
2022/05/15 10:20:39;;;;;;;3.40;1.90;;;;;;;28.30;35.14;100569.20;117352;1185;21870;-56
2022/05/15 10:23:10;;;;;;;5.50;1.90;;;;;;;28.10;34.98;100569.41;117357;1185;23434;-56
2022/05/15 10:25:57;;;;;;;6.30;2.10;;;;;;;27.85;34.75;100575.38;117326;1186;23814;-56
2022/05/15 10:28:49;;;;;;;6.00;2.20;;;;;;;27.56;34.47;100570.36;117372;1185;22931;-55
2022/05/15 10:31:35;;;;;;;4.90;1.60;;;;;;;27.43;34.67;100573.73;117328;1185;23637;-56
2022/05/15 10:34:11;;;;;;;4.50;1.90;;;;;;;27.40;34.77;100571.40;117366;1185;23692;-56
2022/05/15 10:37:13;;;;;;;5.00;1.90;;;;;;;27.57;35.18;100568.46;117185;1185;22961;-57
2022/05/15 10:40:03;;;;;;;7.30;2.70;;;;;;;27.90;35.11;100564.71;117263;1185;21933;-56
2022/05/15 10:42:58;;;;;;;3.30;1.50;;;;;;;28.21;34.82;100561.23;117281;1186;23548;-57
2022/05/15 10:45:46;;;;;;;6.30;1.80;;;;;;;28.52;34.97;100553.77;117330;1186;21960;-57
2022/05/15 10:48:33;;;;;;;3.70;1.80;;;;;;;28.73;34.74;100557.95;117332;1186;22410;-57
2022/05/15 10:51:13;;;;;;;4.50;1.50;;;;;;;28.70;34.56;100557.33;117377;1184;21928;-56
2022/05/15 11:00:20;;;;;;;4.20;1.70;;;;;;;29.15;34.48;100551.83;117518;1185;23557;-55
2022/05/15 11:03:08;;;;;;;6.20;2.00;;;;;;;29.16;34.23;100549.19;117286;1187;21845;-56
2022/05/15 11:05:52;;;;;;;5.90;2.00;;;;;;;29.18;33.64;100547.23;117453;1186;23079;-56
2022/05/15 11:08:31;;;;;;;8.90;2.20;;;;;;;29.05;33.61;100542.98;117535;1186;24190;-56
2022/05/15 11:11:16;;;;;;;5.70;1.60;;;;;;;28.74;32.97;100543.82;117105;1186;21854;-55
2022/05/15 11:13:57;;;;;;;3.90;1.70;;;;;;;28.41;33.17;100550.25;117247;1186;24151;-56
2022/05/15 11:16:40;;;;;;;4.70;2.10;;;;;;;28.17;33.05;100558.35;117299;1185;21919;-56
2022/05/15 11:19:32;;;;;;;5.30;1.90;;;;;;;28.14;33.35;100559.13;117446;1186;23554;-55
2022/05/15 11:22:31;;;;;;;3.70;1.80;;;;;;;28.23;33.53;100556.98;117458;1185;21828;-56
2022/05/15 11:25:25;;;;;;;216.80;19.80;;;;;;;28.40;33.57;100554.81;117562;1185;23532;-56
2022/05/15 11:28:18;;;;;;;10.90;2.40;;;;;;;28.72;33.76;100551.04;117403;1184;21862;-56
2022/05/15 11:30:58;;;;;;;7.00;1.70;;;;;;;29.06;33.67;100547.04;117547;1185;23817;-56
2022/05/15 11:34:02;;;;;;;6.00;1.80;;;;;;;29.32;33.73;100545.47;117387;1186;21849;-56
2022/05/15 11:36:35;;;;;;;5.20;1.80;;;;;;;29.48;33.27;100548.95;117150;1185;21842;-56
2022/05/15 11:39:13;;;;;;;7.40;1.60;;;;;;;29.26;32.98;100544.95;117296;1186;21842;-56
2022/05/15 11:41:43;;;;;;;5.90;1.90;;;;;;;28.93;32.89;100547.27;117338;1185;23317;-56
2022/05/15 11:44:42;;;;;;;4.80;1.60;;;;;;;28.58;32.83;100548.64;117350;1186;23671;-56
2022/05/15 11:47:31;;;;;;;3.30;1.30;;;;;;;28.12;32.37;100541.98;117373;1187;23033;-56
2022/05/15 11:50:03;;;;;;;8.00;1.90;;;;;;;27.83;32.64;100539.73;117323;1186;23460;-56
2022/05/15 11:52:37;;;;;;;7.10;2.30;;;;;;;27.84;32.79;100537.95;117349;1185;25762;-57
2022/05/15 11:55:44;;;;;;;4.30;1.80;;;;;;;27.90;32.78;100534.42;117364;1185;21890;-57
2022/05/15 11:58:32;;;;;;;5.50;1.90;;;;;;;27.91;32.44;100530.94;117448;1186;21849;-56